Terminal Aerodrome Forecast
Issued by NWS

Home | Current Version | Previous Version | Text Only | Print | Product List | Glossary On
Versions: 1 2 3 4 5 6 7 8 9 10 11 12 13 14
425
FTUS45 KABQ 272339
TAFGUP
TAF
KGUP 272339Z 2800/2824 28022G32KT P6SM SCT070
     FM280200 29015G25KT P6SM SCT080
     FM280400 29008KT P6SM BKN090
     FM280900 25008KT P6SM SCT030 BKN060
      TEMPO 2813/2817 26015KT 6SM -SHRA SCT019 BKN029
     FM281700 26012G22KT P6SM VCSH SCT035 OVC060
     FM282200 29014G24KT P6SM VCSH SCT060 BKN100=

USA.gov is the U.S. government's official web portal to all federal, state and local government web resources and services.